ZSIOP FAGM-FAGM

Flight info

Callsign ZSIOP
Flight time 0h 17m
Altitude 6300
Route DCT
Aircraft C150/L-SDG/C

Departure

Time 2026-04-21 20:03
Airport Rand Airport (FAGM)

Arrival

Time 2026-04-21 20:20
Airport Rand Airport (FAGM)
Time Latitude Longitude Altitude Speed Heading
2026-04-21 19:44 -26.23999 28.15346 5485 ft 0 kts 231°
2026-04-21 19:48 -26.24000 28.15345 5485 ft 2 kts 226°
2026-04-21 19:49 -26.24038 28.15332 5485 ft 9 kts 192°
2026-04-21 19:49 -26.24065 28.15256 5485 ft 14 kts 256°
2026-04-21 19:49 -26.24079 28.15143 5485 ft 11 kts 236°
2026-04-21 19:49 -26.24139 28.15157 5485 ft 9 kts 153°
2026-04-21 19:50 -26.24169 28.15181 5485 ft 8 kts 157°
2026-04-21 19:50 -26.24224 28.15205 5486 ft 5 kts 160°
2026-04-21 19:50 -26.24247 28.15216 5486 ft 2 kts 155°
2026-04-21 19:50 -26.24251 28.15218 5486 ft 0 kts 156°
2026-04-21 19:51 -26.24286 28.15235 5487 ft 12 kts 155°
2026-04-21 19:51 -26.24392 28.15285 5487 ft 21 kts 156°
2026-04-21 19:51 -26.24528 28.15348 5488 ft 19 kts 152°
2026-04-21 19:51 -26.24605 28.15419 5488 ft 12 kts 155°
2026-04-21 19:52 -26.24633 28.15417 5489 ft 0 kts 186°
2026-04-21 19:58 -26.24635 28.15416 5489 ft 3 kts 184°
2026-04-21 19:59 -26.24712 28.15424 5489 ft 10 kts 206°
2026-04-21 19:59 -26.24726 28.15405 5490 ft 0 kts 231°
2026-04-21 20:00 -26.24732 28.15397 5490 ft 6 kts 230°
2026-04-21 20:00 -26.24723 28.15337 5490 ft 8 kts 338°
2026-04-21 20:00 -26.24645 28.15300 5490 ft 35 kts 338°
2026-04-21 20:01 -26.24267 28.15121 5506 ft 76 kts 341°
2026-04-21 20:01 -26.23750 28.14883 5663 ft 77 kts 343°
2026-04-21 20:01 -26.23292 28.14619 5889 ft 77 kts 339°
2026-04-21 20:01 -26.23020 28.14470 5977 ft 79 kts 341°
2026-04-21 20:02 -26.22939 28.14427 5982 ft 83 kts 341°
2026-04-21 20:03 -26.22443 28.14180 6213 ft 73 kts 346°
2026-04-21 20:03 -26.21945 28.13969 6332 ft 84 kts 346°
2026-04-21 20:03 -26.21394 28.13621 6341 ft 102 kts 311°
2026-04-21 20:03 -26.21379 28.12810 6344 ft 115 kts 249°
2026-04-21 20:04 -26.21663 28.12018 6353 ft 109 kts 251°
2026-04-21 20:04 -26.21936 28.11242 6327 ft 106 kts 246°
2026-04-21 20:04 -26.22471 28.10745 6322 ft 103 kts 184°
2026-04-21 20:04 -26.23123 28.10956 6322 ft 98 kts 150°
2026-04-21 20:05 -26.23743 28.11268 6330 ft 96 kts 149°
2026-04-21 20:05 -26.24329 28.11557 6359 ft 89 kts 150°
2026-04-21 20:05 -26.24893 28.11823 6382 ft 88 kts 151°
2026-04-21 20:05 -26.25476 28.12069 6366 ft 89 kts 153°
2026-04-21 20:06 -26.26040 28.12290 6274 ft 87 kts 153°
2026-04-21 20:06 -26.26611 28.12519 6134 ft 87 kts 152°
2026-04-21 20:06 -26.27126 28.12828 6019 ft 78 kts 121°
2026-04-21 20:06 -26.27204 28.13358 5964 ft 68 kts 71°
2026-04-21 20:07 -26.27052 28.13853 5931 ft 69 kts 68°
2026-04-21 20:07 -26.26886 28.14356 5928 ft 67 kts 65°
2026-04-21 20:07 -26.26688 28.14822 5932 ft 66 kts 60°
2026-04-21 20:07 -26.26460 28.15267 5902 ft 64 kts 57°
2026-04-21 20:08 -26.26196 28.15669 5799 ft 66 kts 45°
2026-04-21 20:08 -26.25782 28.15859 5719 ft 68 kts
2026-04-21 20:08 -26.25359 28.15623 5652 ft 68 kts 349°
2026-04-21 20:08 -26.24918 28.15424 5562 ft 69 kts 335°
2026-04-21 20:09 -26.24505 28.15233 5493 ft 55 kts 342°
2026-04-21 20:09 -26.24191 28.15083 5485 ft 58 kts 338°
2026-04-21 20:09 -26.23756 28.14866 5605 ft 72 kts 340°
2026-04-21 20:09 -26.23309 28.14672 5850 ft 65 kts 349°
2026-04-21 20:10 -26.22819 28.14521 5963 ft 78 kts 350°
2026-04-21 20:10 -26.22309 28.14366 6248 ft 70 kts 350°
2026-04-21 20:10 -26.21968 28.13965 6323 ft 97 kts 263°
2026-04-21 20:10 -26.22191 28.13229 6388 ft 99 kts 249°
2026-04-21 20:11 -26.22467 28.12562 6464 ft 100 kts 243°
2026-04-21 20:11 -26.22902 28.11980 6493 ft 103 kts 206°
2026-04-21 20:11 -26.23623 28.11862 6342 ft 104 kts 173°
2026-04-21 20:11 -26.24303 28.11947 6344 ft 98 kts 162°
2026-04-21 20:12 -26.24923 28.12147 6339 ft 90 kts 150°
2026-04-21 20:12 -26.25467 28.12415 6373 ft 82 kts 144°
2026-04-21 20:12 -26.25967 28.12732 6280 ft 84 kts 142°
2026-04-21 20:12 -26.26491 28.13048 5977 ft 84 kts 139°
2026-04-21 20:13 -26.26753 28.13553 5732 ft 71 kts 87°
2026-04-21 20:13 -26.26618 28.14043 5662 ft 64 kts 57°
2026-04-21 20:13 -26.26386 28.14466 5696 ft 65 kts 56°
2026-04-21 20:13 -26.26131 28.14872 5740 ft 65 kts 56°
2026-04-21 20:14 -26.25875 28.15268 5756 ft 61 kts 47°
2026-04-21 20:14 -26.25558 28.15592 5726 ft 65 kts 24°
2026-04-21 20:14 -26.25087 28.15505 5596 ft 70 kts 344°
2026-04-21 20:14 -26.24667 28.15310 5493 ft 57 kts 342°
2026-04-21 20:15 -26.24340 28.15156 5486 ft 61 kts 337°
2026-04-21 20:15 -26.23891 28.14942 5597 ft 72 kts 340°
2026-04-21 20:15 -26.23460 28.14704 5808 ft 69 kts 340°
2026-04-21 20:15 -26.23018 28.14457 5978 ft 70 kts 342°
2026-04-21 20:16 -26.22581 28.14203 6142 ft 72 kts 339°
2026-04-21 20:16 -26.22153 28.13912 6335 ft 75 kts 317°
2026-04-21 20:16 -26.22103 28.13281 6327 ft 96 kts 257°
2026-04-21 20:16 -26.22281 28.12554 6363 ft 98 kts 258°
2026-04-21 20:17 -26.22575 28.11867 6375 ft 101 kts 216°
2026-04-21 20:17 -26.23220 28.11806 6405 ft 96 kts 152°
2026-04-21 20:17 -26.23828 28.12105 6418 ft 96 kts 144°
2026-04-21 20:17 -26.24383 28.12512 6435 ft 96 kts 140°
2026-04-21 20:18 -26.24751 28.12785 6406 ft 95 kts 140°
2026-04-21 20:18 -26.25467 28.13272 6301 ft 88 kts 145°
2026-04-21 20:18 -26.25980 28.13566 6131 ft 79 kts 145°
2026-04-21 20:18 -26.26383 28.13921 5962 ft 70 kts 115°
2026-04-21 20:19 -26.26504 28.14410 5846 ft 66 kts 81°
2026-04-21 20:19 -26.26355 28.14878 5809 ft 62 kts 65°
2026-04-21 20:19 -26.26176 28.15323 5786 ft 64 kts 64°
2026-04-21 20:19 -26.25848 28.15647 5770 ft 67 kts 23°
2026-04-21 20:20 -26.25379 28.15652 5660 ft 69 kts 342°
2026-04-21 20:20 -26.24975 28.15452 5562 ft 62 kts 343°
2026-04-21 20:20 -26.24595 28.15275 5491 ft 53 kts 343°
2026-04-21 20:20 -26.24342 28.15158 5486 ft 33 kts 338°
2026-04-21 20:21 -26.24153 28.15103 5486 ft 23 kts 356°
2026-04-21 20:21 -26.24066 28.15113 5486 ft 8 kts 62°
2026-04-21 20:21 -26.24071 28.15163 5485 ft 6 kts 100°
2026-04-21 20:21 -26.24073 28.15217 5485 ft 9 kts 79°
2026-04-21 20:22 -26.24064 28.15293 5485 ft 9 kts 84°
2026-04-21 20:22 -26.24020 28.15344 5485 ft 3 kts 322°
2026-04-21 20:22 -26.24019 28.15334 5485 ft 0 kts 261°